sensor_id;sensor_type;location;lat;lon;timestamp;temperature;humidity
11239;DHT22;5677;48.488;13.436;2022-08-07T00:01:43;23.20;59.20
11239;DHT22;5677;48.488;13.436;2022-08-07T00:04:10;23.20;59.20
11239;DHT22;5677;48.488;13.436;2022-08-07T00:06:39;23.20;59.20
11239;DHT22;5677;48.488;13.436;2022-08-07T00:09:06;23.20;59.20
11239;DHT22;5677;48.488;13.436;2022-08-07T00:11:34;23.20;59.30
11239;DHT22;5677;48.488;13.436;2022-08-07T00:14:01;23.20;59.20
11239;DHT22;5677;48.488;13.436;2022-08-07T00:16:28;23.20;59.30
11239;DHT22;5677;48.488;13.436;2022-08-07T00:18:55;23.20;59.20
11239;DHT22;5677;48.488;13.436;2022-08-07T00:21:22;23.20;59.30
11239;DHT22;5677;48.488;13.436;2022-08-07T00:23:50;23.20;59.30
11239;DHT22;5677;48.488;13.436;2022-08-07T00:26:17;23.20;59.30
11239;DHT22;5677;48.488;13.436;2022-08-07T00:28:44;23.20;59.30
11239;DHT22;5677;48.488;13.436;2022-08-07T00:31:12;23.10;59.30
11239;DHT22;5677;48.488;13.436;2022-08-07T00:33:39;23.20;59.30
11239;DHT22;5677;48.488;13.436;2022-08-07T00:36:07;23.20;59.30
11239;DHT22;5677;48.488;13.436;2022-08-07T00:38:35;23.10;59.30
11239;DHT22;5677;48.488;13.436;2022-08-07T00:41:05;23.20;59.30
11239;DHT22;5677;48.488;13.436;2022-08-07T00:43:32;23.10;59.30
11239;DHT22;5677;48.488;13.436;2022-08-07T00:46:00;23.10;59.30
11239;DHT22;5677;48.488;13.436;2022-08-07T00:48:28;23.20;59.30
11239;DHT22;5677;48.488;13.436;2022-08-07T00:50:56;23.10;59.30
11239;DHT22;5677;48.488;13.436;2022-08-07T00:53:23;23.10;59.30
11239;DHT22;5677;48.488;13.436;2022-08-07T00:55:50;23.10;59.30
11239;DHT22;5677;48.488;13.436;2022-08-07T00:58:19;23.10;59.30
11239;DHT22;5677;48.488;13.436;2022-08-07T01:00:47;23.10;59.30
11239;DHT22;5677;48.488;13.436;2022-08-07T01:03:15;23.10;59.30
11239;DHT22;5677;48.488;13.436;2022-08-07T01:05:44;23.10;59.30
11239;DHT22;5677;48.488;13.436;2022-08-07T01:08:12;23.10;59.30
11239;DHT22;5677;48.488;13.436;2022-08-07T01:10:39;23.10;59.30
11239;DHT22;5677;48.488;13.436;2022-08-07T01:13:08;23.10;59.30
11239;DHT22;5677;48.488;13.436;2022-08-07T01:15:37;23.10;59.30
11239;DHT22;5677;48.488;13.436;2022-08-07T01:18:05;23.10;59.30
11239;DHT22;5677;48.488;13.436;2022-08-07T01:20:34;23.10;59.30
11239;DHT22;5677;48.488;13.436;2022-08-07T01:23:10;23.10;59.30
11239;DHT22;5677;48.488;13.436;2022-08-07T01:25:39;23.10;59.30
11239;DHT22;5677;48.488;13.436;2022-08-07T01:28:07;23.10;59.30
11239;DHT22;5677;48.488;13.436;2022-08-07T01:30:35;23.10;59.30
11239;DHT22;5677;48.488;13.436;2022-08-07T01:33:04;23.10;59.30
11239;DHT22;5677;48.488;13.436;2022-08-07T01:35:31;23.00;59.20
11239;DHT22;5677;48.488;13.436;2022-08-07T01:37:58;23.00;59.20
11239;DHT22;5677;48.488;13.436;2022-08-07T01:40:27;23.00;59.20
11239;DHT22;5677;48.488;13.436;2022-08-07T01:42:55;23.00;59.30
11239;DHT22;5677;48.488;13.436;2022-08-07T01:45:23;23.10;59.30
11239;DHT22;5677;48.488;13.436;2022-08-07T01:47:51;23.00;59.20
11239;DHT22;5677;48.488;13.436;2022-08-07T01:50:18;23.00;59.20
11239;DHT22;5677;48.488;13.436;2022-08-07T01:52:48;23.00;59.20
11239;DHT22;5677;48.488;13.436;2022-08-07T01:55:18;23.10;59.30
11239;DHT22;5677;48.488;13.436;2022-08-07T01:57:51;23.00;59.20
11239;DHT22;5677;48.488;13.436;2022-08-07T02:00:26;23.00;59.20
11239;DHT22;5677;48.488;13.436;2022-08-07T02:03:00;23.00;59.20
11239;DHT22;5677;48.488;13.436;2022-08-07T02:05:32;23.00;59.20
11239;DHT22;5677;48.488;13.436;2022-08-07T02:08:06;23.00;59.20
11239;DHT22;5677;48.488;13.436;2022-08-07T02:10:36;23.00;59.20
11239;DHT22;5677;48.488;13.436;2022-08-07T02:13:07;23.00;59.20
11239;DHT22;5677;48.488;13.436;2022-08-07T02:15:36;23.00;59.20
11239;DHT22;5677;48.488;13.436;2022-08-07T02:18:09;23.00;59.20
11239;DHT22;5677;48.488;13.436;2022-08-07T02:20:38;23.00;59.20
11239;DHT22;5677;48.488;13.436;2022-08-07T02:23:08;23.00;59.20
11239;DHT22;5677;48.488;13.436;2022-08-07T02:25:38;23.00;59.30
11239;DHT22;5677;48.488;13.436;2022-08-07T02:28:09;23.00;59.30
11239;DHT22;5677;48.488;13.436;2022-08-07T02:30:38;23.00;59.20
11239;DHT22;5677;48.488;13.436;2022-08-07T02:33:07;23.00;59.20
11239;DHT22;5677;48.488;13.436;2022-08-07T02:35:35;23.00;59.30
11239;DHT22;5677;48.488;13.436;2022-08-07T02:38:04;23.00;59.30
11239;DHT22;5677;48.488;13.436;2022-08-07T02:40:35;23.00;59.20
11239;DHT22;5677;48.488;13.436;2022-08-07T02:43:04;23.00;59.20
11239;DHT22;5677;48.488;13.436;2022-08-07T02:45:36;23.00;59.30
11239;DHT22;5677;48.488;13.436;2022-08-07T02:48:06;23.00;59.20
11239;DHT22;5677;48.488;13.436;2022-08-07T02:50:33;23.00;59.20
11239;DHT22;5677;48.488;13.436;2022-08-07T02:53:07;23.00;59.20
11239;DHT22;5677;48.488;13.436;2022-08-07T02:55:37;23.00;59.20
11239;DHT22;5677;48.488;13.436;2022-08-07T02:58:12;22.90;59.30
11239;DHT22;5677;48.488;13.436;2022-08-07T03:00:44;22.90;59.20
11239;DHT22;5677;48.488;13.436;2022-08-07T03:03:15;23.00;59.30
11239;DHT22;5677;48.488;13.436;2022-08-07T03:05:43;22.90;59.20
11239;DHT22;5677;48.488;13.436;2022-08-07T03:08:12;22.90;59.30
11239;DHT22;5677;48.488;13.436;2022-08-07T03:10:39;22.90;59.30
11239;DHT22;5677;48.488;13.436;2022-08-07T03:13:07;22.90;59.20
11239;DHT22;5677;48.488;13.436;2022-08-07T03:15:35;22.90;59.30
11239;DHT22;5677;48.488;13.436;2022-08-07T03:18:04;22.90;59.20
11239;DHT22;5677;48.488;13.436;2022-08-07T03:20:31;22.90;59.20
11239;DHT22;5677;48.488;13.436;2022-08-07T03:23:00;22.90;59.20
11239;DHT22;5677;48.488;13.436;2022-08-07T03:25:31;22.90;59.20
11239;DHT22;5677;48.488;13.436;2022-08-07T03:28:02;22.90;59.20
11239;DHT22;5677;48.488;13.436;2022-08-07T03:30:30;22.90;59.20
11239;DHT22;5677;48.488;13.436;2022-08-07T03:32:59;22.90;59.20
11239;DHT22;5677;48.488;13.436;2022-08-07T03:35:29;22.90;59.20
11239;DHT22;5677;48.488;13.436;2022-08-07T03:37:59;22.90;59.20
11239;DHT22;5677;48.488;13.436;2022-08-07T03:40:29;22.90;59.80
11239;DHT22;5677;48.488;13.436;2022-08-07T03:42:57;22.90;59.20
11239;DHT22;5677;48.488;13.436;2022-08-07T03:45:27;22.90;59.20
11239;DHT22;5677;48.488;13.436;2022-08-07T03:47:56;22.90;59.20
11239;DHT22;5677;48.488;13.436;2022-08-07T03:50:24;22.90;59.20
11239;DHT22;5677;48.488;13.436;2022-08-07T03:52:55;22.90;59.20
11239;DHT22;5677;48.488;13.436;2022-08-07T03:55:23;22.90;59.20
11239;DHT22;5677;48.488;13.436;2022-08-07T03:57:51;22.90;59.30
11239;DHT22;5677;48.488;13.436;2022-08-07T04:00:19;22.90;59.30
11239;DHT22;5677;48.488;13.436;2022-08-07T04:02:46;22.90;59.20
11239;DHT22;5677;48.488;13.436;2022-08-07T04:05:13;22.90;59.20
11239;DHT22;5677;48.488;13.436;2022-08-07T04:07:44;22.80;59.10
11239;DHT22;5677;48.488;13.436;2022-08-07T04:10:13;22.80;59.10
11239;DHT22;5677;48.488;13.436;2022-08-07T04:12:40;22.80;59.10
11239;DHT22;5677;48.488;13.436;2022-08-07T04:15:09;22.80;59.10
11239;DHT22;5677;48.488;13.436;2022-08-07T04:17:41;22.80;59.10
11239;DHT22;5677;48.488;13.436;2022-08-07T04:20:09;22.80;59.10
11239;DHT22;5677;48.488;13.436;2022-08-07T04:22:39;22.80;59.10
11239;DHT22;5677;48.488;13.436;2022-08-07T04:25:07;22.80;59.10
11239;DHT22;5677;48.488;13.436;2022-08-07T04:27:36;22.80;59.10
11239;DHT22;5677;48.488;13.436;2022-08-07T04:30:04;22.80;59.10
11239;DHT22;5677;48.488;13.436;2022-08-07T04:32:33;22.80;59.10
11239;DHT22;5677;48.488;13.436;2022-08-07T04:35:02;22.80;59.10
11239;DHT22;5677;48.488;13.436;2022-08-07T04:37:31;22.80;59.10
11239;DHT22;5677;48.488;13.436;2022-08-07T04:39:59;22.80;59.10
11239;DHT22;5677;48.488;13.436;2022-08-07T04:42:26;22.80;59.10
11239;DHT22;5677;48.488;13.436;2022-08-07T04:45:00;22.80;59.10
11239;DHT22;5677;48.488;13.436;2022-08-07T04:47:34;22.80;59.10
11239;DHT22;5677;48.488;13.436;2022-08-07T04:50:09;22.80;59.10
11239;DHT22;5677;48.488;13.436;2022-08-07T04:52:43;22.80;59.10
11239;DHT22;5677;48.488;13.436;2022-08-07T04:55:22;22.80;59.10
11239;DHT22;5677;48.488;13.436;2022-08-07T04:57:58;22.80;59.10
11239;DHT22;5677;48.488;13.436;2022-08-07T05:00:39;22.80;59.10
11239;DHT22;5677;48.488;13.436;2022-08-07T05:03:15;22.80;59.10
11239;DHT22;5677;48.488;13.436;2022-08-07T05:05:51;22.80;59.10
11239;DHT22;5677;48.488;13.436;2022-08-07T05:08:28;22.80;59.10
11239;DHT22;5677;48.488;13.436;2022-08-07T05:11:09;22.80;59.10
11239;DHT22;5677;48.488;13.436;2022-08-07T05:13:44;22.80;59.00
11239;DHT22;5677;48.488;13.436;2022-08-07T05:16:20;22.80;59.00
11239;DHT22;5677;48.488;13.436;2022-08-07T05:18:53;22.80;59.00
11239;DHT22;5677;48.488;13.436;2022-08-07T05:21:26;22.80;59.00
11239;DHT22;5677;48.488;13.436;2022-08-07T05:23:58;22.80;59.00
11239;DHT22;5677;48.488;13.436;2022-08-07T05:26:31;22.80;59.10
11239;DHT22;5677;48.488;13.436;2022-08-07T05:29:02;22.80;59.00
11239;DHT22;5677;48.488;13.436;2022-08-07T05:31:35;22.80;59.00
11239;DHT22;5677;48.488;13.436;2022-08-07T05:34:06;22.80;59.00
11239;DHT22;5677;48.488;13.436;2022-08-07T05:36:37;22.80;59.00
11239;DHT22;5677;48.488;13.436;2022-08-07T05:39:06;22.80;59.00
11239;DHT22;5677;48.488;13.436;2022-08-07T05:41:33;22.80;59.00
11239;DHT22;5677;48.488;13.436;2022-08-07T05:44:01;22.80;59.00
11239;DHT22;5677;48.488;13.436;2022-08-07T05:46:28;22.80;59.00
11239;DHT22;5677;48.488;13.436;2022-08-07T05:48:57;22.80;59.00
11239;DHT22;5677;48.488;13.436;2022-08-07T05:51:25;22.80;59.00
11239;DHT22;5677;48.488;13.436;2022-08-07T05:53:52;22.80;59.00
11239;DHT22;5677;48.488;13.436;2022-08-07T05:56:21;22.80;59.00
11239;DHT22;5677;48.488;13.436;2022-08-07T05:58:49;22.80;59.00
11239;DHT22;5677;48.488;13.436;2022-08-07T06:01:17;22.80;59.00
11239;DHT22;5677;48.488;13.436;2022-08-07T06:03:47;22.80;59.00
11239;DHT22;5677;48.488;13.436;2022-08-07T06:06:20;22.80;59.00
11239;DHT22;5677;48.488;13.436;2022-08-07T06:08:50;22.80;58.90
11239;DHT22;5677;48.488;13.436;2022-08-07T06:11:19;22.80;58.90
11239;DHT22;5677;48.488;13.436;2022-08-07T06:13:46;22.80;58.90
11239;DHT22;5677;48.488;13.436;2022-08-07T06:16:14;22.80;58.90
11239;DHT22;5677;48.488;13.436;2022-08-07T06:18:43;22.80;58.90
11239;DHT22;5677;48.488;13.436;2022-08-07T06:21:11;22.80;58.80
11239;DHT22;5677;48.488;13.436;2022-08-07T06:23:40;22.80;58.90
11239;DHT22;5677;48.488;13.436;2022-08-07T06:26:10;22.80;58.80
11239;DHT22;5677;48.488;13.436;2022-08-07T06:28:50;22.90;58.90
11239;DHT22;5677;48.488;13.436;2022-08-07T06:31:19;22.90;58.90
11239;DHT22;5677;48.488;13.436;2022-08-07T06:33:47;22.90;58.80
11239;DHT22;5677;48.488;13.436;2022-08-07T06:36:14;22.90;58.80
11239;DHT22;5677;48.488;13.436;2022-08-07T06:38:43;22.90;58.80
11239;DHT22;5677;48.488;13.436;2022-08-07T06:41:14;22.90;58.80
11239;DHT22;5677;48.488;13.436;2022-08-07T06:43:46;22.90;58.80
11239;DHT22;5677;48.488;13.436;2022-08-07T06:46:14;22.90;58.80
11239;DHT22;5677;48.488;13.436;2022-08-07T06:48:42;22.90;58.80
11239;DHT22;5677;48.488;13.436;2022-08-07T06:51:13;22.90;58.80
11239;DHT22;5677;48.488;13.436;2022-08-07T06:53:45;22.90;58.80
11239;DHT22;5677;48.488;13.436;2022-08-07T06:56:15;22.90;58.80
11239;DHT22;5677;48.488;13.436;2022-08-07T06:59:05;22.90;58.80
11239;DHT22;5677;48.488;13.436;2022-08-07T07:01:33;22.90;58.80
11239;DHT22;5677;48.488;13.436;2022-08-07T07:04:02;22.90;58.70
11239;DHT22;5677;48.488;13.436;2022-08-07T07:06:31;22.90;58.70
11239;DHT22;5677;48.488;13.436;2022-08-07T07:09:18;22.90;58.70
11239;DHT22;5677;48.488;13.436;2022-08-07T07:12:13;22.80;58.60
11239;DHT22;5677;48.488;13.436;2022-08-07T07:14:50;22.80;58.60
11239;DHT22;5677;48.488;13.436;2022-08-07T07:17:27;22.80;58.60
11239;DHT22;5677;48.488;13.436;2022-08-07T07:20:05;22.80;58.60
11239;DHT22;5677;48.488;13.436;2022-08-07T07:22:35;22.90;58.70
11239;DHT22;5677;48.488;13.436;2022-08-07T07:25:05;22.90;58.60
11239;DHT22;5677;48.488;13.436;2022-08-07T07:27:40;22.90;58.60
11239;DHT22;5677;48.488;13.436;2022-08-07T07:30:13;22.90;58.60
11239;DHT22;5677;48.488;13.436;2022-08-07T07:32:41;22.90;58.60
11239;DHT22;5677;48.488;13.436;2022-08-07T07:35:11;22.90;58.60
11239;DHT22;5677;48.488;13.436;2022-08-07T07:37:41;22.90;58.50
11239;DHT22;5677;48.488;13.436;2022-08-07T07:40:17;22.90;58.50
11239;DHT22;5677;48.488;13.436;2022-08-07T07:42:48;22.90;58.50
11239;DHT22;5677;48.488;13.436;2022-08-07T07:45:19;22.90;58.50
11239;DHT22;5677;48.488;13.436;2022-08-07T07:47:51;22.90;58.40
11239;DHT22;5677;48.488;13.436;2022-08-07T07:50:22;22.90;58.30
11239;DHT22;5677;48.488;13.436;2022-08-07T07:52:51;22.90;58.30
11239;DHT22;5677;48.488;13.436;2022-08-07T07:55:21;22.90;58.20
11239;DHT22;5677;48.488;13.436;2022-08-07T07:57:53;22.90;58.20
11239;DHT22;5677;48.488;13.436;2022-08-07T08:00:23;22.90;58.10
11239;DHT22;5677;48.488;13.436;2022-08-07T08:02:55;23.00;58.10
11239;DHT22;5677;48.488;13.436;2022-08-07T08:05:24;22.90;58.10
11239;DHT22;5677;48.488;13.436;2022-08-07T08:07:52;23.00;58.10
11239;DHT22;5677;48.488;13.436;2022-08-07T08:10:21;23.00;58.10
11239;DHT22;5677;48.488;13.436;2022-08-07T08:12:49;23.00;58.10
11239;DHT22;5677;48.488;13.436;2022-08-07T08:15:17;22.90;58.10
11239;DHT22;5677;48.488;13.436;2022-08-07T08:17:45;22.90;58.10
11239;DHT22;5677;48.488;13.436;2022-08-07T08:20:14;22.90;58.00
11239;DHT22;5677;48.488;13.436;2022-08-07T08:22:44;22.90;58.10
11239;DHT22;5677;48.488;13.436;2022-08-07T08:25:33;22.90;58.00
11239;DHT22;5677;48.488;13.436;2022-08-07T08:28:24;23.00;58.00
11239;DHT22;5677;48.488;13.436;2022-08-07T08:30:56;22.90;58.00
11239;DHT22;5677;48.488;13.436;2022-08-07T08:33:29;22.90;58.40
11239;DHT22;5677;48.488;13.436;2022-08-07T08:35:59;23.00;58.00
11239;DHT22;5677;48.488;13.436;2022-08-07T08:38:31;23.00;58.00
11239;DHT22;5677;48.488;13.436;2022-08-07T08:41:17;22.90;58.00
11239;DHT22;5677;48.488;13.436;2022-08-07T08:43:57;23.00;58.00
11239;DHT22;5677;48.488;13.436;2022-08-07T08:46:35;22.90;57.90
11239;DHT22;5677;48.488;13.436;2022-08-07T08:49:15;23.00;57.90
11239;DHT22;5677;48.488;13.436;2022-08-07T08:51:54;23.00;57.90
11239;DHT22;5677;48.488;13.436;2022-08-07T08:54:28;23.00;57.90
11239;DHT22;5677;48.488;13.436;2022-08-07T08:57:06;23.00;57.90
11239;DHT22;5677;48.488;13.436;2022-08-07T08:59:46;23.00;57.80
11239;DHT22;5677;48.488;13.436;2022-08-07T09:02:36;23.00;57.80
11239;DHT22;5677;48.488;13.436;2022-08-07T09:05:21;23.00;57.80
11239;DHT22;5677;48.488;13.436;2022-08-07T09:07:56;23.00;57.80
11239;DHT22;5677;48.488;13.436;2022-08-07T09:10:36;23.00;57.80
11239;DHT22;5677;48.488;13.436;2022-08-07T09:13:26;23.00;57.80
11239;DHT22;5677;48.488;13.436;2022-08-07T09:16:04;23.00;57.80
11239;DHT22;5677;48.488;13.436;2022-08-07T09:18:55;23.00;57.80
11239;DHT22;5677;48.488;13.436;2022-08-07T09:21:35;23.00;57.70
11239;DHT22;5677;48.488;13.436;2022-08-07T09:24:18;23.00;57.70
11239;DHT22;5677;48.488;13.436;2022-08-07T09:27:01;23.00;57.70
11239;DHT22;5677;48.488;13.436;2022-08-07T09:29:44;23.00;57.70
11239;DHT22;5677;48.488;13.436;2022-08-07T09:32:26;23.00;57.70
11239;DHT22;5677;48.488;13.436;2022-08-07T09:35:05;23.00;57.70
11239;DHT22;5677;48.488;13.436;2022-08-07T09:37:40;23.00;57.70
11239;DHT22;5677;48.488;13.436;2022-08-07T09:40:17;23.00;57.70
11239;DHT22;5677;48.488;13.436;2022-08-07T09:42:55;23.00;57.70
11239;DHT22;5677;48.488;13.436;2022-08-07T09:45:41;23.00;57.70
11239;DHT22;5677;48.488;13.436;2022-08-07T09:48:21;23.00;57.70
11239;DHT22;5677;48.488;13.436;2022-08-07T09:51:10;23.00;57.70
11239;DHT22;5677;48.488;13.436;2022-08-07T09:53:44;23.00;57.70
11239;DHT22;5677;48.488;13.436;2022-08-07T10:00:03;23.00;57.70
11239;DHT22;5677;48.488;13.436;2022-08-07T10:02:55;23.00;57.70
11239;DHT22;5677;48.488;13.436;2022-08-07T10:05:54;23.00;57.70
11239;DHT22;5677;48.488;13.436;2022-08-07T10:08:52;23.00;57.70
11239;DHT22;5677;48.488;13.436;2022-08-07T10:11:52;23.00;57.70
11239;DHT22;5677;48.488;13.436;2022-08-07T10:14:57;23.00;57.70
11239;DHT22;5677;48.488;13.436;2022-08-07T10:18:00;23.00;57.60
11239;DHT22;5677;48.488;13.436;2022-08-07T10:20:41;23.00;57.60
11239;DHT22;5677;48.488;13.436;2022-08-07T10:23:39;23.00;57.60
11239;DHT22;5677;48.488;13.436;2022-08-07T10:26:28;23.10;57.70
11239;DHT22;5677;48.488;13.436;2022-08-07T10:29:10;23.10;57.70
11239;DHT22;5677;48.488;13.436;2022-08-07T10:32:04;23.00;57.60
11239;DHT22;5677;48.488;13.436;2022-08-07T10:34:53;23.10;57.70
11239;DHT22;5677;48.488;13.436;2022-08-07T10:37:38;23.10;57.60
11239;DHT22;5677;48.488;13.436;2022-08-07T10:40:19;23.10;57.70
11239;DHT22;5677;48.488;13.436;2022-08-07T10:42:57;23.10;57.70
11239;DHT22;5677;48.488;13.436;2022-08-07T10:45:35;23.10;57.60
11239;DHT22;5677;48.488;13.436;2022-08-07T10:48:15;23.10;57.70
11239;DHT22;5677;48.488;13.436;2022-08-07T10:50:54;23.10;57.60
11239;DHT22;5677;48.488;13.436;2022-08-07T10:53:27;23.10;57.60
11239;DHT22;5677;48.488;13.436;2022-08-07T10:56:03;23.10;57.60
11239;DHT22;5677;48.488;13.436;2022-08-07T10:58:52;23.10;57.60
11239;DHT22;5677;48.488;13.436;2022-08-07T11:01:40;23.10;57.50
11239;DHT22;5677;48.488;13.436;2022-08-07T11:04:23;23.10;57.50
11239;DHT22;5677;48.488;13.436;2022-08-07T11:07:05;23.10;57.50
11239;DHT22;5677;48.488;13.436;2022-08-07T11:09:44;23.10;57.50
11239;DHT22;5677;48.488;13.436;2022-08-07T11:12:16;23.10;57.40
11239;DHT22;5677;48.488;13.436;2022-08-07T11:14:50;23.20;57.50
11239;DHT22;5677;48.488;13.436;2022-08-07T11:17:29;23.20;57.50
11239;DHT22;5677;48.488;13.436;2022-08-07T11:20:13;23.10;57.50
11239;DHT22;5677;48.488;13.436;2022-08-07T11:22:50;23.20;57.50
11239;DHT22;5677;48.488;13.436;2022-08-07T11:25:24;23.20;57.50
11239;DHT22;5677;48.488;13.436;2022-08-07T11:28:04;23.20;57.50
11239;DHT22;5677;48.488;13.436;2022-08-07T11:30:42;23.20;57.50
11239;DHT22;5677;48.488;13.436;2022-08-07T11:33:20;23.20;57.50
11239;DHT22;5677;48.488;13.436;2022-08-07T11:36:00;23.20;57.50
11239;DHT22;5677;48.488;13.436;2022-08-07T11:38:44;23.20;57.50
11239;DHT22;5677;48.488;13.436;2022-08-07T11:41:20;23.20;57.60
11239;DHT22;5677;48.488;13.436;2022-08-07T11:43:54;23.20;57.50
11239;DHT22;5677;48.488;13.436;2022-08-07T11:46:38;23.20;57.50
11239;DHT22;5677;48.488;13.436;2022-08-07T11:49:42;23.20;57.50
11239;DHT22;5677;48.488;13.436;2022-08-07T11:52:49;23.20;57.50
11239;DHT22;5677;48.488;13.436;2022-08-07T11:55:39;23.20;57.60
11239;DHT22;5677;48.488;13.436;2022-08-07T11:58:28;23.20;57.60
11239;DHT22;5677;48.488;13.436;2022-08-07T12:01:13;23.20;57.50
11239;DHT22;5677;48.488;13.436;2022-08-07T12:04:12;23.20;57.50
11239;DHT22;5677;48.488;13.436;2022-08-07T12:06:55;23.20;57.50
11239;DHT22;5677;48.488;13.436;2022-08-07T12:09:34;23.20;57.50
11239;DHT22;5677;48.488;13.436;2022-08-07T12:12:07;23.20;57.50
11239;DHT22;5677;48.488;13.436;2022-08-07T12:14:46;23.20;57.40
11239;DHT22;5677;48.488;13.436;2022-08-07T12:17:19;23.20;57.30
11239;DHT22;5677;48.488;13.436;2022-08-07T12:19:56;23.20;57.40
11239;DHT22;5677;48.488;13.436;2022-08-07T12:22:40;23.20;57.40
11239;DHT22;5677;48.488;13.436;2022-08-07T12:25:19;23.20;57.40
11239;DHT22;5677;48.488;13.436;2022-08-07T12:28:15;23.20;57.50
11239;DHT22;5677;48.488;13.436;2022-08-07T12:30:50;23.20;57.50
11239;DHT22;5677;48.488;13.436;2022-08-07T12:33:22;23.30;57.50
11239;DHT22;5677;48.488;13.436;2022-08-07T12:35:53;23.30;58.10
11239;DHT22;5677;48.488;13.436;2022-08-07T12:38:23;23.30;57.30
11239;DHT22;5677;48.488;13.436;2022-08-07T12:40:53;23.30;57.20
11239;DHT22;5677;48.488;13.436;2022-08-07T12:43:30;23.30;57.00
11239;DHT22;5677;48.488;13.436;2022-08-07T12:46:07;23.30;56.50
11239;DHT22;5677;48.488;13.436;2022-08-07T12:48:57;23.30;56.20
11239;DHT22;5677;48.488;13.436;2022-08-07T12:51:36;23.30;56.10
11239;DHT22;5677;48.488;13.436;2022-08-07T12:54:16;23.30;52.90
11239;DHT22;5677;48.488;13.436;2022-08-07T12:56:53;23.30;51.20
11239;DHT22;5677;48.488;13.436;2022-08-07T12:59:27;23.20;49.00
11239;DHT22;5677;48.488;13.436;2022-08-07T13:02:05;23.20;50.40
11239;DHT22;5677;48.488;13.436;2022-08-07T13:04:50;23.20;48.70
11239;DHT22;5677;48.488;13.436;2022-08-07T13:07:49;23.20;50.60
11239;DHT22;5677;48.488;13.436;2022-08-07T13:10:38;23.20;50.40
11239;DHT22;5677;48.488;13.436;2022-08-07T13:13:33;23.20;48.80
11239;DHT22;5677;48.488;13.436;2022-08-07T13:16:26;23.20;46.30
11239;DHT22;5677;48.488;13.436;2022-08-07T13:19:06;23.20;49.10
11239;DHT22;5677;48.488;13.436;2022-08-07T13:21:42;23.20;49.20
11239;DHT22;5677;48.488;13.436;2022-08-07T13:24:20;23.20;48.90
11239;DHT22;5677;48.488;13.436;2022-08-07T13:26:56;23.20;48.10
11239;DHT22;5677;48.488;13.436;2022-08-07T13:29:35;23.20;48.10
11239;DHT22;5677;48.488;13.436;2022-08-07T13:32:14;23.20;48.30
11239;DHT22;5677;48.488;13.436;2022-08-07T13:34:53;23.20;48.50
11239;DHT22;5677;48.488;13.436;2022-08-07T13:37:28;23.20;47.80
11239;DHT22;5677;48.488;13.436;2022-08-07T13:40:06;23.20;47.80
11239;DHT22;5677;48.488;13.436;2022-08-07T13:42:39;23.20;47.10
11239;DHT22;5677;48.488;13.436;2022-08-07T13:45:09;23.20;47.70
11239;DHT22;5677;48.488;13.436;2022-08-07T13:47:40;23.20;47.80
11239;DHT22;5677;48.488;13.436;2022-08-07T13:50:09;23.20;48.00
11239;DHT22;5677;48.488;13.436;2022-08-07T13:52:39;23.20;47.00
11239;DHT22;5677;48.488;13.436;2022-08-07T13:55:11;23.20;46.60
11239;DHT22;5677;48.488;13.436;2022-08-07T13:57:43;23.20;46.80
11239;DHT22;5677;48.488;13.436;2022-08-07T14:00:12;23.20;47.40
11239;DHT22;5677;48.488;13.436;2022-08-07T14:02:42;23.20;47.60
11239;DHT22;5677;48.488;13.436;2022-08-07T14:05:14;23.20;47.00
11239;DHT22;5677;48.488;13.436;2022-08-07T14:07:48;23.20;47.00
11239;DHT22;5677;48.488;13.436;2022-08-07T14:10:17;23.20;46.70
11239;DHT22;5677;48.488;13.436;2022-08-07T14:12:47;23.20;46.50
11239;DHT22;5677;48.488;13.436;2022-08-07T14:15:26;23.20;46.60
11239;DHT22;5677;48.488;13.436;2022-08-07T14:18:00;23.20;46.60
11239;DHT22;5677;48.488;13.436;2022-08-07T14:20:31;23.20;46.60
11239;DHT22;5677;48.488;13.436;2022-08-07T14:23:05;23.20;46.50
11239;DHT22;5677;48.488;13.436;2022-08-07T14:25:38;23.20;46.90
11239;DHT22;5677;48.488;13.436;2022-08-07T14:28:09;23.20;46.20
11239;DHT22;5677;48.488;13.436;2022-08-07T14:30:38;23.20;46.70
11239;DHT22;5677;48.488;13.436;2022-08-07T14:33:15;23.20;46.30
11239;DHT22;5677;48.488;13.436;2022-08-07T14:35:44;23.20;46.50
11239;DHT22;5677;48.488;13.436;2022-08-07T14:38:13;23.20;46.60
11239;DHT22;5677;48.488;13.436;2022-08-07T14:40:42;23.20;46.90
11239;DHT22;5677;48.488;13.436;2022-08-07T14:43:11;23.20;47.00
11239;DHT22;5677;48.488;13.436;2022-08-07T14:45:42;23.20;47.20
11239;DHT22;5677;48.488;13.436;2022-08-07T14:48:15;23.20;46.90
11239;DHT22;5677;48.488;13.436;2022-08-07T14:50:46;23.20;47.00
11239;DHT22;5677;48.488;13.436;2022-08-07T14:53:17;23.10;47.70
11239;DHT22;5677;48.488;13.436;2022-08-07T14:55:46;23.20;48.20
11239;DHT22;5677;48.488;13.436;2022-08-07T14:58:16;23.20;48.50
11239;DHT22;5677;48.488;13.436;2022-08-07T15:00:47;23.20;48.00
11239;DHT22;5677;48.488;13.436;2022-08-07T15:03:22;23.20;48.10
11239;DHT22;5677;48.488;13.436;2022-08-07T15:05:51;23.20;47.60
11239;DHT22;5677;48.488;13.436;2022-08-07T15:08:22;23.10;46.80
11239;DHT22;5677;48.488;13.436;2022-08-07T15:10:56;23.10;46.90
11239;DHT22;5677;48.488;13.436;2022-08-07T15:13:26;23.20;46.40
11239;DHT22;5677;48.488;13.436;2022-08-07T15:15:58;23.20;45.90
11239;DHT22;5677;48.488;13.436;2022-08-07T15:18:32;23.10;46.00
11239;DHT22;5677;48.488;13.436;2022-08-07T15:21:05;23.20;46.50
11239;DHT22;5677;48.488;13.436;2022-08-07T15:23:38;23.20;46.60
11239;DHT22;5677;48.488;13.436;2022-08-07T15:26:10;23.20;46.70
11239;DHT22;5677;48.488;13.436;2022-08-07T15:28:39;23.10;46.60
11239;DHT22;5677;48.488;13.436;2022-08-07T15:31:10;23.20;46.80
11239;DHT22;5677;48.488;13.436;2022-08-07T15:33:42;23.20;47.30
11239;DHT22;5677;48.488;13.436;2022-08-07T15:36:11;23.10;47.80
11239;DHT22;5677;48.488;13.436;2022-08-07T15:38:39;23.20;47.80
11239;DHT22;5677;48.488;13.436;2022-08-07T15:41:10;23.10;47.70
11239;DHT22;5677;48.488;13.436;2022-08-07T15:43:42;23.20;48.60
11239;DHT22;5677;48.488;13.436;2022-08-07T15:46:16;23.10;47.90
11239;DHT22;5677;48.488;13.436;2022-08-07T15:48:47;23.10;48.30
11239;DHT22;5677;48.488;13.436;2022-08-07T15:51:16;23.10;48.50
11239;DHT22;5677;48.488;13.436;2022-08-07T15:53:47;23.10;48.60
11239;DHT22;5677;48.488;13.436;2022-08-07T15:56:20;23.10;48.50
11239;DHT22;5677;48.488;13.436;2022-08-07T15:58:57;23.10;48.80
11239;DHT22;5677;48.488;13.436;2022-08-07T16:01:29;23.10;48.60
11239;DHT22;5677;48.488;13.436;2022-08-07T16:04:01;23.10;48.50
11239;DHT22;5677;48.488;13.436;2022-08-07T16:06:34;23.10;48.20
11239;DHT22;5677;48.488;13.436;2022-08-07T16:09:05;23.10;48.00
11239;DHT22;5677;48.488;13.436;2022-08-07T16:12:07;23.10;48.10
11239;DHT22;5677;48.488;13.436;2022-08-07T16:14:55;23.10;47.80
11239;DHT22;5677;48.488;13.436;2022-08-07T16:17:38;23.10;46.70